Time;durP1;ratioP1;P1;durP2;ratioP2;P2;SDS_P1;SDS_P2;PMS_P1;PMS_P2;Temp;Humidity;BMP_temperature;BMP_pressure;BME280_temperature;BME280_humidity;BME280_pressure;Samples;Min_cycle;Max_cycle;Signal;HPM_P1;HPM_P2
2023/07/10 00:01:06;;;;;;;25.97;11.50;;;19.80;56.80;;;;;;5074580;28;20410;-75
2023/07/10 00:03:32;;;;;;;24.45;11.20;;;19.80;57.00;;;;;;5094607;28;20507;-74
2023/07/10 00:05:59;;;;;;;25.20;11.23;;;19.90;58.30;;;;;;5074782;28;20402;-74
2023/07/10 00:08:25;;;;;;;22.63;10.60;;;19.90;59.30;;;;;;5069898;28;20455;-74
2023/07/10 00:10:51;;;;;;;21.17;10.30;;;19.80;57.10;;;;;;5093538;28;20477;-75
2023/07/10 00:13:21;;;;;;;20.77;9.53;;;19.90;58.00;;;;;;5057411;28;20522;-75
2023/07/10 00:15:51;;;;;;;18.98;9.57;;;19.80;59.40;;;;;;5062535;28;20413;-74
2023/07/10 00:18:19;;;;;;;21.33;9.70;;;19.90;57.40;;;;;;5071002;28;20440;-74
2023/07/10 00:20:45;;;;;;;20.40;9.25;;;19.80;57.10;;;;;;5086588;28;20491;-75
2023/07/10 00:23:11;;;;;;;21.45;9.57;;;19.80;58.40;;;;;;5075174;28;20488;-75
2023/07/10 00:25:37;;;;;;;17.85;8.68;;;19.90;59.00;;;;;;5070352;28;20417;-74
2023/07/10 00:28:15;;;;;;;18.57;8.80;;;19.90;55.30;;;;;;5084736;28;20389;-75
2023/07/10 00:30:40;;;;;;;19.98;9.40;;;19.90;53.70;;;;;;5074645;28;20505;-75
2023/07/10 00:33:10;;;;;;;19.40;9.53;;;19.80;54.00;;;;;;5071257;28;20525;-74
2023/07/10 00:35:37;;;;;;;24.20;9.75;;;19.80;54.70;;;;;;5093013;28;20413;-74
2023/07/10 00:38:20;;;;;;;19.90;10.00;;;19.80;54.80;;;;;;5084381;28;20421;-75
2023/07/10 00:40:46;;;;;;;20.27;9.95;;;19.80;56.00;;;;;;5093171;28;20469;-74
2023/07/10 00:43:42;;;;;;;17.17;9.18;;;19.80;56.00;;;;;;5066525;28;20410;-75
2023/07/10 00:46:35;;;;;;;19.70;9.50;;;19.80;57.70;;;;;;5088369;28;20463;-75
2023/07/10 00:49:12;;;;;;;22.90;9.80;;;19.80;58.30;;;;;;5072189;28;20402;-75
2023/07/10 00:51:55;;;;;;;21.38;10.30;;;19.80;59.60;;;;;;5072672;28;20417;-74
2023/07/10 00:54:30;;;;;;;21.73;10.60;;;19.80;59.20;;;;;;5047857;28;20477;-75
2023/07/10 00:56:56;;;;;;;23.58;10.88;;;19.80;57.50;;;;;;5074648;28;20485;-75
2023/07/10 00:59:27;;;;;;;18.70;10.40;;;19.70;58.00;;;;;;5062610;28;20986;-74
2023/07/10 01:02:07;;;;;;;21.02;10.90;;;19.70;56.70;;;;;;5087813;28;20451;-75
2023/07/10 01:04:39;;;;;;;19.42;10.02;;;19.60;56.40;;;;;;5068612;28;20832;-75
2023/07/10 01:07:10;;;;;;;19.85;9.95;;;19.60;55.90;;;;;;5075432;28;21148;-74
2023/07/10 01:09:37;;;;;;;20.30;10.30;;;19.50;56.90;;;;;;5072310;28;20407;-75
2023/07/10 01:12:05;;;;;;;22.40;10.80;;;19.50;60.10;;;;;;5057269;28;20415;-74
2023/07/10 01:14:36;;;;;;;27.17;10.93;;;19.40;58.70;;;;;;5063611;28;20411;-74
2023/07/10 01:17:06;;;;;;;24.45;11.65;;;19.40;60.50;;;;;;5077278;28;20525;-74
2023/07/10 01:19:34;;;;;;;22.77;12.18;;;19.30;61.80;;;;;;5057429;28;20442;-74
2023/07/10 01:22:01;;;;;;;24.73;12.90;;;19.30;64.20;;;;;;5068890;28;20406;-74
2023/07/10 01:24:27;;;;;;;25.47;13.67;;;19.20;62.10;;;;;;5072360;28;20406;-74
2023/07/10 01:26:55;;;;;;;28.80;14.88;;;19.10;62.70;;;;;;5072160;28;20398;-74
2023/07/10 01:29:30;;;;;;;25.73;15.55;;;19.10;65.00;;;;;;5054177;28;20426;-74
2023/07/10 01:31:57;;;;;;;28.65;16.05;;;19.20;67.10;;;;;;5088190;28;20394;-74
2023/07/10 01:34:30;;;;;;;32.35;17.55;;;19.20;66.90;;;;;;5049083;28;20400;-75
2023/07/10 01:36:55;;;;;;;31.00;16.73;;;19.20;68.00;;;;;;5086359;28;20410;-74
2023/07/10 01:39:36;;;;;;;28.52;17.13;;;19.20;68.40;;;;;;5089789;28;20491;-75
2023/07/10 01:42:02;;;;;;;32.35;17.90;;;19.20;69.00;;;;;;5072252;28;20432;-75
2023/07/10 01:44:29;;;;;;;32.45;18.17;;;19.20;69.80;;;;;;5071217;28;20468;-74
2023/07/10 01:46:56;;;;;;;33.97;19.25;;;19.30;71.60;;;;;;5064814;28;20422;-75
2023/07/10 01:49:28;;;;;;;33.30;18.75;;;19.30;72.50;;;;;;5071943;28;20491;-74
2023/07/10 01:51:56;;;;;;;36.75;21.83;;;19.30;74.20;;;;;;5071148;28;20442;-75
2023/07/10 01:54:22;;;;;;;37.13;20.58;;;19.40;76.80;;;;;;5089431;28;20410;-74
2023/07/10 01:56:48;;;;;;;34.83;21.23;;;19.40;71.60;;;;;;5090191;28;20927;-75
2023/07/10 01:59:14;;;;;;;32.67;20.60;;;19.40;72.40;;;;;;5089445;28;20426;-74
2023/07/10 02:01:39;;;;;;;29.35;18.20;;;19.40;72.10;;;;;;5090084;28;20406;-74
2023/07/10 02:04:05;;;;;;;26.27;16.10;;;19.40;71.00;;;;;;5084069;28;20404;-75
2023/07/10 02:06:34;;;;;;;27.67;16.98;;;19.40;68.10;;;;;;5081466;28;20394;-75
2023/07/10 02:09:00;;;;;;;26.42;16.00;;;19.30;66.50;;;;;;5089371;28;20409;-74
2023/07/10 02:11:26;;;;;;;26.07;16.43;;;19.30;64.70;;;;;;5078059;28;20392;-75
2023/07/10 02:13:52;;;;;;;25.85;16.10;;;19.30;63.10;;;;;;5089361;28;20486;-75
2023/07/10 02:16:18;;;;;;;27.95;17.42;;;19.20;64.60;;;;;;5089752;28;20394;-75
2023/07/10 02:18:43;;;;;;;25.65;16.17;;;19.20;68.40;;;;;;5088632;28;20511;-74
2023/07/10 02:21:09;;;;;;;24.30;16.95;;;19.20;67.40;;;;;;5081361;28;20412;-74
2023/07/10 02:23:37;;;;;;;28.60;16.90;;;19.20;68.60;;;;;;5088464;28;20407;-75
2023/07/10 02:26:03;;;;;;;25.90;17.08;;;19.20;68.40;;;;;;5089318;28;20802;-75
2023/07/10 02:28:29;;;;;;;31.25;17.27;;;19.20;67.40;;;;;;5088739;28;20394;-74
2023/07/10 02:30:55;;;;;;;29.80;17.20;;;19.20;65.40;;;;;;5083202;28;20411;-74
2023/07/10 02:33:21;;;;;;;29.92;17.60;;;19.20;64.60;;;;;;5070313;28;20405;-74
2023/07/10 02:35:47;;;;;;;26.73;18.13;;;19.10;63.90;;;;;;5089037;28;20394;-75
2023/07/10 02:38:13;;;;;;;29.20;16.83;;;19.10;64.70;;;;;;5089140;28;20433;-74
2023/07/10 02:40:39;;;;;;;30.00;18.33;;;19.10;67.10;;;;;;5070647;28;20410;-75
2023/07/10 02:43:04;;;;;;;28.40;16.90;;;19.10;66.00;;;;;;5081616;28;20398;-74
2023/07/10 02:45:30;;;;;;;24.93;16.03;;;19.00;65.00;;;;;;5088785;28;20402;-74
2023/07/10 02:47:56;;;;;;;24.63;16.85;;;19.00;64.80;;;;;;5082643;28;20394;-75
2023/07/10 02:50:21;;;;;;;26.13;16.80;;;19.00;65.90;;;;;;5083205;28;20465;-74
2023/07/10 02:52:47;;;;;;;27.88;17.23;;;19.00;66.20;;;;;;5062857;28;20416;-74
2023/07/10 02:55:12;;;;;;;25.33;16.88;;;18.90;66.30;;;;;;5083512;28;20626;-74
2023/07/10 02:57:38;;;;;;;28.60;16.20;;;18.90;66.70;;;;;;5080184;28;20464;-74
2023/07/10 03:00:04;;;;;;;25.45;16.13;;;18.90;70.30;;;;;;5088631;28;20421;-74
2023/07/10 03:02:30;;;;;;;28.05;16.42;;;18.90;71.30;;;;;;5082451;28;20402;-74
2023/07/10 03:04:56;;;;;;;26.50;16.17;;;19.00;68.80;;;;;;5075322;28;21002;-75
2023/07/10 03:07:22;;;;;;;26.53;16.30;;;18.90;69.90;;;;;;5070762;28;20408;-74
2023/07/10 03:09:49;;;;;;;24.10;15.85;;;18.90;69.50;;;;;;5064591;28;20415;-75
2023/07/10 03:12:15;;;;;;;23.67;15.80;;;18.90;69.90;;;;;;5074085;28;20451;-74
2023/07/10 03:14:40;;;;;;;23.45;15.57;;;18.90;69.50;;;;;;5078651;28;20426;-74
2023/07/10 03:17:06;;;;;;;25.48;16.13;;;18.90;69.50;;;;;;5079595;28;20433;-74
2023/07/10 03:19:32;;;;;;;25.33;15.50;;;18.90;70.60;;;;;;5083015;28;20428;-75
2023/07/10 03:21:58;;;;;;;25.23;15.27;;;18.90;71.30;;;;;;5069658;28;20402;-74
2023/07/10 03:24:24;;;;;;;23.40;15.23;;;18.90;71.10;;;;;;5062340;28;21162;-75
2023/07/10 03:26:49;;;;;;;22.63;14.68;;;18.90;71.10;;;;;;5087396;28;20483;-74
2023/07/10 03:29:16;;;;;;;22.77;15.07;;;18.90;70.60;;;;;;5088339;28;20406;-75
2023/07/10 03:31:42;;;;;;;20.85;14.82;;;18.90;70.80;;;;;;5087741;28;20398;-74
2023/07/10 03:34:11;;;;;;;22.00;14.88;;;18.90;70.30;;;;;;5087679;28;20398;-75
2023/07/10 03:36:37;;;;;;;24.65;15.65;;;19.00;71.30;;;;;;5069363;28;20414;-74
2023/07/10 03:39:03;;;;;;;18.83;13.57;;;18.90;70.30;;;;;;5069679;28;20426;-75
2023/07/10 03:41:28;;;;;;;22.73;13.82;;;19.00;68.60;;;;;;5069205;28;20475;-75
2023/07/10 03:43:55;;;;;;;19.27;13.27;;;19.00;67.60;;;;;;5081478;28;20764;-75
2023/07/10 03:46:20;;;;;;;20.02;12.82;;;19.00;68.00;;;;;;5061609;28;20445;-74
2023/07/10 03:48:47;;;;;;;19.52;11.93;;;19.00;68.00;;;;;;5069839;28;20439;-74
2023/07/10 03:51:14;;;;;;;20.33;11.45;;;19.00;67.80;;;;;;5069536;28;20424;-74
2023/07/10 03:53:40;;;;;;;16.38;11.25;;;19.00;66.50;;;;;;5063235;28;20411;-75
2023/07/10 03:56:05;;;;;;;15.67;10.43;;;19.00;65.40;;;;;;5052743;28;20413;-75
2023/07/10 03:58:33;;;;;;;17.63;9.93;;;19.00;64.80;;;;;;5069687;28;20440;-75
2023/07/10 04:01:00;;;;;;;13.77;9.00;;;19.00;62.40;;;;;;5069345;28;20414;-75
2023/07/10 04:03:28;;;;;;;17.85;9.20;;;19.00;62.50;;;;;;5062538;28;20411;-75
2023/07/10 04:05:56;;;;;;;16.77;8.32;;;19.00;61.60;;;;;;5052460;28;20398;-75
2023/07/10 04:08:24;;;;;;;13.13;7.28;;;19.00;60.00;;;;;;5070221;28;20398;-74
2023/07/10 04:10:55;;;;;;;13.55;7.60;;;19.00;56.80;;;;;;5069446;28;20494;-74
2023/07/10 04:13:21;;;;;;;14.30;7.95;;;19.00;54.00;;;;;;5069412;28;20406;-75
2023/07/10 04:16:01;;;;;;;12.90;8.07;;;19.00;51.30;;;;;;5069597;28;20410;-74
2023/07/10 04:18:38;;;;;;;13.13;7.28;;;18.90;50.60;;;;;;5066450;28;20435;-74
2023/07/10 04:21:07;;;;;;;10.03;6.03;;;19.00;49.50;;;;;;5068970;28;20398;-75
2023/07/10 04:23:33;;;;;;;11.57;5.85;;;18.90;48.20;;;;;;5087689;28;20398;-75
2023/07/10 04:25:58;;;;;;;9.48;5.40;;;18.90;47.50;;;;;;5079530;28;20421;-75
2023/07/10 04:28:24;;;;;;;11.35;5.68;;;19.00;47.80;;;;;;5069077;28;20854;-75
2023/07/10 04:30:51;;;;;;;9.93;5.22;;;19.00;46.40;;;;;;5087419;28;20413;-75
2023/07/10 04:33:19;;;;;;;8.43;5.57;;;19.00;44.70;;;;;;5069294;28;20520;-74
2023/07/10 04:35:52;;;;;;;10.50;5.50;;;19.00;44.60;;;;;;5054826;28;20413;-74
2023/07/10 04:38:18;;;;;;;9.80;5.07;;;19.00;45.30;;;;;;5062810;28;20834;-74
2023/07/10 04:40:58;;;;;;;8.33;4.40;;;19.00;43.80;;;;;;5062587;28;20406;-74
2023/07/10 04:43:25;;;;;;;7.35;3.95;;;19.10;42.30;;;;;;5065272;28;20500;-75
2023/07/10 04:45:55;;;;;;;8.77;4.37;;;19.10;37.50;;;;;;5086983;28;20410;-75
2023/07/10 04:48:22;;;;;;;8.35;4.45;;;19.10;36.20;;;;;;5072452;28;20426;-74
2023/07/10 04:50:49;;;;;;;9.10;4.07;;;19.10;37.40;;;;;;5085322;28;20929;-75
2023/07/10 04:53:16;;;;;;;8.05;4.28;;;19.10;38.30;;;;;;5072817;28;20445;-75
2023/07/10 04:55:42;;;;;;;7.65;4.25;;;19.20;38.30;;;;;;5066676;28;20457;-75
2023/07/10 04:58:08;;;;;;;7.63;4.05;;;19.20;36.90;;;;;;5072588;28;20780;-75
2023/07/10 05:00:34;;;;;;;11.27;4.20;;;19.20;33.90;;;;;;5072819;28;20413;-75
2023/07/10 05:03:01;;;;;;;9.50;4.50;;;19.20;29.70;;;;;;5072854;28;21195;-75
2023/07/10 05:05:26;;;;;;;8.90;4.60;;;19.20;28.70;;;;;;5089666;28;20406;-75
2023/07/10 05:07:52;;;;;;;8.07;4.63;;;19.20;28.90;;;;;;5073295;28;20525;-74
2023/07/10 05:10:17;;;;;;;8.80;4.50;;;19.20;28.30;;;;;;5090750;28;20926;-74
2023/07/10 05:12:43;;;;;;;8.67;4.57;;;19.30;31.10;;;;;;5072463;28;20463;-74
2023/07/10 05:15:09;;;;;;;7.20;4.40;;;19.40;32.80;;;;;;5072437;28;20768;-74
2023/07/10 05:17:35;;;;;;;11.00;4.85;;;19.40;29.00;;;;;;5071536;28;20485;-72
2023/07/10 05:20:00;;;;;;;8.20;5.10;;;19.40;27.50;;;;;;5055259;28;20448;-73
2023/07/10 05:22:26;;;;;;;8.82;5.75;;;19.40;25.80;;;;;;5055691;28;20481;-71
2023/07/10 05:24:52;;;;;;;9.13;5.20;;;19.40;25.00;;;;;;5072425;28;20441;-72
2023/07/10 05:27:17;;;;;;;11.25;5.72;;;19.40;24.00;;;;;;5086997;28;20415;-73
2023/07/10 05:29:43;;;;;;;11.17;5.80;;;19.40;22.60;;;;;;5060395;28;20422;-73
2023/07/10 05:32:09;;;;;;;9.40;5.85;;;19.40;20.80;;;;;;5079543;28;20853;-73
2023/07/10 05:34:34;;;;;;;13.20;6.07;;;19.50;21.00;;;;;;5067715;28;20413;-74
2023/07/10 05:37:00;;;;;;;11.70;5.65;;;19.40;18.00;;;;;;5068337;28;20503;-74
2023/07/10 05:39:29;;;;;;;13.13;6.07;;;19.40;14.20;;;;;;5067614;28;20506;-74
2023/07/10 05:41:55;;;;;;;10.35;5.70;;;19.40;13.30;;;;;;5072238;28;20410;-74
2023/07/10 05:44:21;;;;;;;11.73;5.95;;;19.40;15.00;;;;;;5072316;28;20404;-75
2023/07/10 05:46:47;;;;;;;9.77;5.50;;;19.40;16.20;;;;;;5055246;28;20413;-74
2023/07/10 05:49:12;;;;;;;8.70;5.05;;;19.40;16.10;;;;;;5065037;28;20398;-74
2023/07/10 05:51:38;;;;;;;9.52;4.70;;;19.40;15.60;;;;;;5071684;28;20463;-74
2023/07/10 05:54:04;;;;;;;9.70;4.80;;;19.50;14.10;;;;;;5071848;28;20414;-74
2023/07/10 05:56:30;;;;;;;7.07;4.32;;;19.50;10.10;;;;;;5065212;28;20409;-74
2023/07/10 05:58:55;;;;;;;7.80;4.57;;;19.60;8.00;;;;;;5089268;28;20425;-74
2023/07/10 06:01:21;;;;;;;9.25;4.60;;;19.60;7.90;;;;;;5071847;28;20406;-74
2023/07/10 06:03:46;;;;;;;8.20;4.30;;;19.70;6.40;;;;;;5069505;28;20401;-74
2023/07/10 06:06:12;;;;;;;6.03;3.80;;;19.80;5.70;;;;;;5067855;28;20398;-74
2023/07/10 06:08:38;;;;;;;5.40;3.00;;;19.80;4.40;;;;;;5055335;28;20879;-74
2023/07/10 06:11:05;;;;;;;7.23;3.07;;;19.80;1.00;;;;;;5069830;28;20917;-75
2023/07/10 06:13:31;;;;;;;7.67;2.93;;;19.80;1.00;;;;;;5089392;28;20402;-75
2023/07/10 06:15:58;;;;;;;6.15;2.85;;;19.90;1.00;;;;;;5071337;28;20409;-75
2023/07/10 06:18:25;;;;;;;7.22;3.08;;;20.00;1.00;;;;;;5083336;28;20552;-74
2023/07/10 06:20:56;;;;;;;7.93;3.20;;;20.00;1.00;;;;;;5063813;28;20417;-74
2023/07/10 06:23:23;;;;;;;8.33;3.40;;;20.10;1.00;;;;;;5088474;28;20390;-75
2023/07/10 06:25:50;;;;;;;5.30;2.67;;;20.10;1.00;;;;;;5065878;28;20871;-74
2023/07/10 06:28:16;;;;;;;6.97;2.83;;;20.10;1.00;;;;;;5089273;28;20402;-74
2023/07/10 06:30:43;;;;;;;6.82;2.92;;;20.10;1.00;;;;;;5070188;28;20958;-74
2023/07/10 06:33:09;;;;;;;5.82;2.72;;;20.10;1.00;;;;;;5064357;28;20918;-74
2023/07/10 06:35:35;;;;;;;6.07;2.70;;;20.10;1.00;;;;;;5088773;28;20409;-74
2023/07/10 06:38:00;;;;;;;7.75;2.90;;;20.20;1.00;;;;;;5089397;28;20404;-75
2023/07/10 06:40:26;;;;;;;6.20;2.60;;;20.20;1.00;;;;;;5088760;28;20405;-75
2023/07/10 06:42:52;;;;;;;6.28;3.28;;;20.20;1.00;;;;;;5088937;28;20400;-75
2023/07/10 06:45:18;;;;;;;6.30;3.05;;;20.20;1.00;;;;;;5070880;28;21102;-75
2023/07/10 06:47:45;;;;;;;6.03;3.13;;;20.20;1.00;;;;;;5070371;28;20479;-75
2023/07/10 06:50:13;;;;;;;7.28;3.00;;;20.30;1.00;;;;;;5085479;28;20399;-74
2023/07/10 06:52:42;;;;;;;6.70;3.10;;;20.30;1.00;;;;;;5068209;28;20406;-75
2023/07/10 06:55:11;;;;;;;5.60;2.67;;;20.30;1.00;;;;;;5070459;28;20410;-75
2023/07/10 06:57:37;;;;;;;7.47;2.67;;;20.40;1.00;;;;;;5070472;28;20422;-74
2023/07/10 07:00:06;;;;;;;6.38;2.38;;;20.40;1.00;;;;;;5070304;28;20907;-75
2023/07/10 07:02:32;;;;;;;5.88;2.33;;;20.30;1.00;;;;;;5088457;28;20459;-75
2023/07/10 07:04:57;;;;;;;6.60;2.85;;;20.40;1.00;;;;;;5088048;28;20401;-74
2023/07/10 07:07:23;;;;;;;5.83;2.57;;;20.40;1.00;;;;;;5070507;28;20486;-74
2023/07/10 07:09:49;;;;;;;9.15;2.78;;;20.40;1.00;;;;;;5069440;28;20402;-74
2023/07/10 07:12:14;;;;;;;7.67;2.67;;;20.40;1.00;;;;;;5070561;28;20444;-74
2023/07/10 07:14:40;;;;;;;6.35;3.08;;;20.40;1.00;;;;;;5069820;28;20930;-74
2023/07/10 07:17:06;;;;;;;6.03;2.70;;;20.50;1.00;;;;;;5070895;28;20478;-74
2023/07/10 07:19:32;;;;;;;10.40;2.90;;;20.60;1.00;;;;;;5065223;28;20998;-75
2023/07/10 07:21:59;;;;;;;5.97;2.70;;;20.60;1.00;;;;;;5069533;28;20409;-74
2023/07/10 07:24:24;;;;;;;7.40;2.83;;;20.70;1.00;;;;;;5062787;28;20455;-74
2023/07/10 07:26:50;;;;;;;7.73;3.23;;;20.70;1.00;;;;;;5070190;28;20672;-74
2023/07/10 07:29:16;;;;;;;10.13;2.97;;;20.70;1.00;;;;;;5069833;28;20410;-75
2023/07/10 07:31:41;;;;;;;7.50;3.37;;;20.70;1.00;;;;;;5062626;28;20416;-75
2023/07/10 07:34:07;;;;;;;8.15;3.03;;;20.80;1.00;;;;;;5069863;28;20455;-74
2023/07/10 07:36:34;;;;;;;6.53;2.70;;;20.90;1.00;;;;;;5070111;28;20401;-75
2023/07/10 07:39:04;;;;;;;7.78;2.70;;;21.00;1.00;;;;;;5080841;28;20457;-75
2023/07/10 07:41:34;;;;;;;9.40;2.80;;;21.10;1.00;;;;;;5087987;28;20406;-74
2023/07/10 07:44:03;;;;;;;5.70;2.20;;;21.10;1.00;;;;;;5062674;28;20493;-75
2023/07/10 07:46:29;;;;;;;8.85;2.75;;;21.10;99.90;;;;;;5063793;28;20402;-75
2023/07/10 07:48:55;;;;;;;7.78;2.83;;;21.10;99.90;;;;;;5080945;28;20460;-75
2023/07/10 07:51:20;;;;;;;5.55;2.25;;;21.10;99.90;;;;;;5087511;28;20760;-74
2023/07/10 07:53:46;;;;;;;5.37;2.30;;;21.20;99.90;;;;;;5063428;28;20418;-75
2023/07/10 07:56:12;;;;;;;8.80;2.42;;;21.20;99.90;;;;;;5053242;28;20409;-75
2023/07/10 07:58:38;;;;;;;8.53;2.60;;;21.30;99.90;;;;;;5080226;28;20844;-75
2023/07/10 08:01:04;;;;;;;7.97;2.83;;;21.30;99.90;;;;;;5082968;28;20405;-74
2023/07/10 08:03:31;;;;;;;6.75;2.30;;;21.30;99.90;;;;;;5069616;28;20481;-74
2023/07/10 08:05:57;;;;;;;7.07;2.13;;;21.40;99.90;;;;;;5063940;28;20414;-74
2023/07/10 08:08:23;;;;;;;9.40;2.30;;;21.40;99.90;;;;;;5069600;28;20402;-74
2023/07/10 08:10:50;;;;;;;7.57;2.17;;;21.50;99.90;;;;;;5069690;28;20409;-74
2023/07/10 08:13:18;;;;;;;7.50;2.45;;;21.40;99.90;;;;;;5069103;28;20398;-74
2023/07/10 08:15:44;;;;;;;6.55;2.60;;;21.40;99.90;;;;;;5068175;28;20410;-75
2023/07/10 08:18:10;;;;;;;7.10;2.80;;;21.50;99.90;;;;;;5068671;28;20437;-75
2023/07/10 08:20:36;;;;;;;6.63;2.35;;;21.50;99.90;;;;;;5082937;28;20841;-74
2023/07/10 08:23:03;;;;;;;5.65;2.35;;;21.50;99.90;;;;;;5073748;28;20406;-75
2023/07/10 08:25:29;;;;;;;5.85;2.10;;;21.60;99.90;;;;;;5073919;28;20437;-75
2023/07/10 08:27:58;;;;;;;6.32;2.17;;;21.70;99.90;;;;;;5073642;28;20428;-75
2023/07/10 08:30:24;;;;;;;7.45;2.30;;;21.80;76.80;;;;;;5091661;28;20418;-74
2023/07/10 08:32:49;;;;;;;7.18;1.95;;;21.90;21.00;;;;;;5091720;28;20402;-74
2023/07/10 08:35:15;;;;;;;7.70;2.00;;;22.00;9.50;;;;;;5073773;28;20531;-74
2023/07/10 08:37:41;;;;;;;7.70;2.13;;;22.10;1.00;;;;;;5091135;28;20405;-74
2023/07/10 08:40:15;;;;;;;7.28;2.05;;;22.30;1.00;;;;;;5090805;28;20426;-75
2023/07/10 08:42:42;;;;;;;6.70;1.60;;;22.30;99.90;;;;;;5072800;28;20479;-75
2023/07/10 08:45:15;;;;;;;9.63;2.20;;;22.30;99.90;;;;;;5084852;28;20398;-75
2023/07/10 08:47:46;;;;;;;8.45;1.92;;;22.50;99.90;;;;;;5088243;28;20399;-75
2023/07/10 08:50:22;;;;;;;7.38;1.73;;;22.60;99.90;;;;;;5075475;28;20944;-75
2023/07/10 08:53:05;;;;;;;5.80;1.40;;;22.60;99.90;;;;;;5072679;28;20509;-75
2023/07/10 08:56:02;;;;;;;9.80;1.88;;;22.50;99.90;;;;;;5067537;28;20497;-74
2023/07/10 08:58:33;;;;;;;6.80;1.88;;;22.60;30.20;;;;;;5089666;28;20517;-75
2023/07/10 09:01:02;;;;;;;6.75;1.83;;;22.70;99.90;;;;;;5090928;28;20991;-75
2023/07/10 09:03:44;;;;;;;7.18;1.70;;;22.80;56.60;;;;;;5055777;28;20406;-74
2023/07/10 09:06:21;;;;;;;7.68;2.20;;;23.00;99.90;;;;;;5054216;28;20402;-75
2023/07/10 09:08:52;;;;;;;6.78;1.83;;;23.10;99.90;;;;;;5080137;28;20470;-75
2023/07/10 09:11:19;;;;;;;6.03;1.35;;;23.00;99.90;;;;;;5090868;28;20414;-75
2023/07/10 09:13:59;;;;;;;7.50;2.00;;;23.00;99.90;;;;;;5090258;28;20983;-75
2023/07/10 09:16:26;;;;;;;7.77;1.27;;;23.10;99.90;;;;;;5072458;28;20422;-75
2023/07/10 09:18:53;;;;;;;6.68;1.90;;;23.00;99.90;;;;;;5083475;28;20557;-75
2023/07/10 09:21:28;;;;;;;8.68;1.83;;;23.00;99.90;;;;;;5065958;28;20434;-74
2023/07/10 09:23:55;;;;;;;5.53;1.80;;;23.10;99.90;;;;;;5090546;28;20923;-75
2023/07/10 09:26:26;;;;;;;7.43;2.10;;;23.20;99.90;;;;;;5090391;28;20401;-75
2023/07/10 09:29:10;;;;;;;7.63;1.70;;;23.30;99.90;;;;;;5077511;28;20539;-75
2023/07/10 09:32:07;;;;;;;6.63;1.65;;;23.20;82.40;;;;;;5090295;28;20401;-74
2023/07/10 09:34:34;;;;;;;6.15;1.70;;;23.20;47.50;;;;;;5085201;28;20410;-75
2023/07/10 09:37:03;;;;;;;7.72;2.13;;;23.40;1.00;;;;;;5072339;28;20398;-75
2023/07/10 09:39:31;;;;;;;4.95;1.20;;;23.70;1.00;;;;;;5090244;28;20426;-75
2023/07/10 09:41:59;;;;;;;6.45;1.77;;;24.00;99.90;;;;;;5076963;28;20963;-75
2023/07/10 09:44:37;;;;;;;7.10;1.58;;;24.20;99.90;;;;;;5089617;28;21034;-75
2023/07/10 09:47:06;;;;;;;6.07;1.65;;;24.40;99.90;;;;;;5072038;28;20406;-75
2023/07/10 09:49:35;;;;;;;6.28;1.90;;;24.70;1.00;;;;;;5089843;28;20406;-75
2023/07/10 09:52:03;;;;;;;8.13;2.08;;;24.90;99.90;;;;;;5064749;28;20410;-75
2023/07/10 09:54:35;;;;;;;5.68;1.50;;;25.10;99.90;;;;;;5058335;28;20447;-75
2023/07/10 09:57:03;;;;;;;6.23;1.50;;;25.30;99.90;;;;;;5072094;28;20805;-75
2023/07/10 09:59:31;;;;;;;6.45;1.73;;;25.50;99.90;;;;;;5071889;28;20436;-75
2023/07/10 10:02:11;;;;;;;6.82;1.42;;;25.50;58.40;;;;;;5055201;28;20493;-75
2023/07/10 10:04:37;;;;;;;7.32;1.25;;;25.30;1.00;;;;;;5089087;28;20468;-75
2023/07/10 10:07:05;;;;;;;6.90;1.57;;;25.30;1.00;;;;;;5071710;28;20418;-75
2023/07/10 10:09:32;;;;;;;7.07;1.58;;;25.40;1.00;;;;;;5065662;28;20442;-75
2023/07/10 10:12:29;;;;;;;6.37;1.50;;;25.40;1.00;;;;;;5089728;28;21143;-75
2023/07/10 10:15:01;;;;;;;6.07;2.00;;;25.40;1.00;;;;;;5060559;28;20440;-75
2023/07/10 10:17:31;;;;;;;6.85;1.30;;;25.40;1.00;;;;;;5076122;28;20453;-75
2023/07/10 10:20:17;;;;;;;6.38;1.50;;;25.30;1.00;;;;;;5078172;28;20650;-75
2023/07/10 10:22:43;;;;;;;6.93;1.80;;;25.30;99.90;;;;;;5089119;28;20444;-75
2023/07/10 10:25:15;;;;;;;7.80;1.70;;;25.20;1.00;;;;;;5063170;28;20402;-75
2023/07/10 10:27:47;;;;;;;7.60;1.92;;;25.20;99.90;;;;;;5088817;28;20409;-75
2023/07/10 10:30:21;;;;;;;5.93;1.52;;;25.20;1.00;;;;;;5084246;28;20398;-75
2023/07/10 10:33:14;;;;;;;7.20;1.60;;;25.60;1.00;;;;;;5088795;28;20410;-75
2023/07/10 10:36:00;;;;;;;6.70;1.63;;;25.80;99.90;;;;;;5055234;28;20510;-75
2023/07/10 10:38:38;;;;;;;6.60;1.53;;;25.90;99.90;;;;;;5069028;28;20935;-73
2023/07/10 10:41:31;;;;;;;6.10;1.63;;;25.90;99.90;;;;;;5061084;28;20427;-72
2023/07/10 10:44:09;;;;;;;7.88;1.60;;;25.90;99.90;;;;;;5064301;28;21302;-74
2023/07/10 10:46:37;;;;;;;7.40;1.50;;;25.80;99.90;;;;;;5076533;28;21162;-74
2023/07/10 10:49:40;;;;;;;9.18;1.98;;;25.60;99.90;;;;;;5048960;28;20539;-74
2023/07/10 10:52:18;;;;;;;7.75;1.65;;;25.40;99.90;;;;;;5057864;28;20784;-74
2023/07/10 10:54:49;;;;;;;6.70;1.60;;;25.30;99.90;;;;;;5062767;28;20414;-74
2023/07/10 10:57:18;;;;;;;6.95;1.60;;;25.10;99.90;;;;;;5088713;28;20447;-74
2023/07/10 10:59:56;;;;;;;8.70;1.88;;;25.30;99.90;;;;;;5064812;28;20808;-74
2023/07/10 11:02:47;;;;;;;6.53;1.83;;;25.40;99.90;;;;;;5086363;28;20802;-74
2023/07/10 11:05:35;;;;;;;7.77;1.90;;;25.40;99.90;;;;;;5080471;28;20406;-74
2023/07/10 11:08:14;;;;;;;8.03;2.00;;;25.20;99.90;;;;;;5056448;28;20785;-74
2023/07/10 11:10:42;;;;;;;9.90;2.90;;;25.40;99.90;;;;;;5039380;28;20412;-74
2023/07/10 11:13:39;;;;;;;9.23;2.17;;;25.80;99.90;;;;;;5041081;28;20538;-74
2023/07/10 11:16:06;;;;;;;7.63;1.92;;;26.10;99.90;;;;;;5041113;28;20479;-74
2023/07/10 11:18:33;;;;;;;7.53;1.83;;;26.50;99.90;;;;;;5061580;28;20428;-70
2023/07/10 11:21:01;;;;;;;8.07;1.80;;;26.90;99.90;;;;;;5083668;28;20432;-70
2023/07/10 11:23:42;;;;;;;7.22;1.77;;;27.20;99.90;;;;;;5069352;28;20406;-71
2023/07/10 11:26:08;;;;;;;9.85;1.90;;;27.50;99.90;;;;;;5087159;28;20459;-70
2023/07/10 11:28:34;;;;;;;8.80;1.30;;;27.70;99.90;;;;;;5068882;28;20414;-70
2023/07/10 11:31:21;;;;;;;8.07;1.70;;;27.90;99.90;;;;;;5088115;28;20390;-70
2023/07/10 11:33:53;;;;;;;8.90;1.58;;;28.00;99.90;;;;;;5076728;28;20755;-70
2023/07/10 11:36:24;;;;;;;8.13;1.77;;;28.10;99.90;;;;;;5082239;28;21222;-70
2023/07/10 11:38:55;;;;;;;6.75;2.03;;;28.30;99.90;;;;;;5078465;28;20475;-70
2023/07/10 11:41:30;;;;;;;7.97;1.70;;;28.00;99.90;;;;;;5068609;28;20943;-70
2023/07/10 11:44:19;;;;;;;7.50;1.70;;;27.70;99.90;;;;;;5055419;28;20416;-70
2023/07/10 11:46:57;;;;;;;6.78;1.60;;;27.70;99.90;;;;;;5065013;28;20839;-70
2023/07/10 11:49:35;;;;;;;6.63;1.60;;;27.90;99.90;;;;;;5068950;28;20410;-70
2023/07/10 11:52:15;;;;;;;7.10;2.00;;;28.20;99.90;;;;;;5088136;28;20410;-70
2023/07/10 11:54:41;;;;;;;8.18;1.55;;;28.40;99.90;;;;;;5075971;28;20414;-70
2023/07/10 11:57:06;;;;;;;6.07;1.30;;;28.50;99.90;;;;;;5068115;28;20414;-70
2023/07/10 11:59:54;;;;;;;7.23;1.30;;;28.70;99.90;;;;;;5086970;28;20963;-70
2023/07/10 12:02:28;;;;;;;7.63;1.55;;;29.00;99.90;;;;;;5086238;28;20921;-70
2023/07/10 12:04:57;;;;;;;6.70;1.98;;;28.90;99.90;;;;;;5055579;28;20521;-70
2023/07/10 12:07:22;;;;;;;8.27;2.00;;;28.50;99.90;;;;;;5087168;28;20420;-70
2023/07/10 12:09:59;;;;;;;8.87;2.13;;;28.00;99.90;;;;;;5084892;28;20954;-70
2023/07/10 12:12:30;;;;;;;10.68;1.70;;;27.70;99.90;;;;;;5051194;28;20547;-70
2023/07/10 12:15:00;;;;;;;7.55;1.83;;;27.70;99.90;;;;;;5082623;28;21019;-70
2023/07/10 12:17:29;;;;;;;9.60;1.80;;;27.70;99.90;;;;;;5087745;28;20512;-70
2023/07/10 12:19:55;;;;;;;8.05;1.83;;;27.90;99.90;;;;;;5076831;28;20457;-70
2023/07/10 12:22:23;;;;;;;7.37;1.80;;;28.00;99.90;;;;;;5087197;28;20394;-70
2023/07/10 12:27:35;;;;;;;7.32;1.63;;;28.60;99.90;;;;;;5105272;27;20377;-71
2023/07/10 12:30:02;;;;;;;6.53;1.70;;;28.90;99.90;;;;;;5092808;28;20526;-75
2023/07/10 12:32:31;;;;;;;7.05;1.60;;;29.00;99.90;;;;;;5080764;28;20419;-75
2023/07/10 12:34:56;;;;;;;6.82;1.40;;;28.80;99.90;;;;;;5074138;28;20415;-75
2023/07/10 12:37:23;;;;;;;6.23;1.20;;;28.60;99.90;;;;;;5079167;28;20422;-75
2023/07/10 12:39:50;;;;;;;6.55;1.63;;;28.30;99.90;;;;;;5079452;28;20415;-75
2023/07/10 12:42:32;;;;;;;5.87;1.57;;;28.20;99.90;;;;;;5081154;28;20415;-75
2023/07/10 12:45:05;;;;;;;7.65;1.42;;;28.40;99.90;;;;;;5084188;28;20941;-75
2023/07/10 12:47:33;;;;;;;6.25;1.48;;;28.60;99.90;;;;;;5073362;28;20450;-75
2023/07/10 12:49:59;;;;;;;5.72;1.30;;;28.70;99.90;;;;;;5078927;28;20418;-75
2023/07/10 12:52:30;;;;;;;5.80;1.30;;;28.80;99.90;;;;;;5086239;28;20456;-72
2023/07/10 12:54:56;;;;;;;4.53;1.00;;;28.90;99.90;;;;;;5094236;28;20405;-73
2023/07/10 12:57:29;;;;;;;5.07;1.25;;;29.10;99.90;;;;;;5090406;28;20411;-73